sensor_id;sensor_type;location;lat;lon;timestamp;pressure;altitude;pressure_sealevel;temperature;humidity
49473;BME280;67434;50.956;6.918;2023-02-22T00:00:15;101074.94;;;6.16;92.55
49473;BME280;67434;50.956;6.918;2023-02-22T00:02:51;101072.03;;;6.17;92.45
49473;BME280;67434;50.956;6.918;2023-02-22T00:05:18;101070.22;;;6.11;92.67
49473;BME280;67434;50.956;6.918;2023-02-22T00:07:49;101066.94;;;6.09;92.84
49473;BME280;67434;50.956;6.918;2023-02-22T00:10:18;101068.34;;;6.12;92.89
49473;BME280;67434;50.956;6.918;2023-02-22T00:12:52;101072.09;;;6.11;92.66
49473;BME280;67434;50.956;6.918;2023-02-22T00:15:22;101063.06;;;6.05;92.26
49473;BME280;67434;50.956;6.918;2023-02-22T00:17:52;101067.75;;;6.10;91.92
49473;BME280;67434;50.956;6.918;2023-02-22T00:20:18;101062.00;;;6.06;91.39
49473;BME280;67434;50.956;6.918;2023-02-22T00:22:45;101053.78;;;6.01;91.20
49473;BME280;67434;50.956;6.918;2023-02-22T00:25:13;101055.31;;;5.84;91.47
49473;BME280;67434;50.956;6.918;2023-02-22T00:27:38;101048.16;;;5.78;91.53
49473;BME280;67434;50.956;6.918;2023-02-22T00:30:05;101048.31;;;5.83;91.14
49473;BME280;67434;50.956;6.918;2023-02-22T00:32:31;101048.09;;;5.59;91.60
49473;BME280;67434;50.956;6.918;2023-02-22T00:34:57;101047.44;;;5.57;91.79
49473;BME280;67434;50.956;6.918;2023-02-22T00:37:22;101043.34;;;5.55;92.00
49473;BME280;67434;50.956;6.918;2023-02-22T00:39:48;101043.31;;;5.61;91.80
49473;BME280;67434;50.956;6.918;2023-02-22T00:42:15;101045.19;;;5.54;91.48
49473;BME280;67434;50.956;6.918;2023-02-22T00:44:41;101049.22;;;5.39;92.01
49473;BME280;67434;50.956;6.918;2023-02-22T00:47:07;101048.84;;;5.35;92.07
49473;BME280;67434;50.956;6.918;2023-02-22T00:49:33;101042.88;;;5.33;92.05
49473;BME280;67434;50.956;6.918;2023-02-22T00:51:59;101037.72;;;5.31;91.80
49473;BME280;67434;50.956;6.918;2023-02-22T00:54:24;101030.50;;;5.32;91.53
49473;BME280;67434;50.956;6.918;2023-02-22T00:56:49;101036.28;;;5.29;91.69
49473;BME280;67434;50.956;6.918;2023-02-22T00:59:15;101030.56;;;5.19;92.29
49473;BME280;67434;50.956;6.918;2023-02-22T01:01:40;101034.47;;;5.23;92.24
49473;BME280;67434;50.956;6.918;2023-02-22T01:04:07;101029.91;;;5.30;92.50
49473;BME280;67434;50.956;6.918;2023-02-22T01:06:33;101031.50;;;5.38;92.12
49473;BME280;67434;50.956;6.918;2023-02-22T01:08:59;101015.59;;;5.43;91.42
49473;BME280;67434;50.956;6.918;2023-02-22T01:11:26;101018.47;;;5.41;91.48
49473;BME280;67434;50.956;6.918;2023-02-22T01:13:52;101020.78;;;5.38;91.81
49473;BME280;67434;50.956;6.918;2023-02-22T01:16:18;101011.91;;;5.37;92.10
49473;BME280;67434;50.956;6.918;2023-02-22T01:18:45;101006.34;;;5.39;91.69
49473;BME280;67434;50.956;6.918;2023-02-22T01:21:11;101003.81;;;5.44;92.12
49473;BME280;67434;50.956;6.918;2023-02-22T01:23:36;101010.81;;;5.45;92.21
49473;BME280;67434;50.956;6.918;2023-02-22T01:26:02;101001.53;;;5.47;91.77
49473;BME280;67434;50.956;6.918;2023-02-22T01:28:33;101000.50;;;5.48;91.73
49473;BME280;67434;50.956;6.918;2023-02-22T01:30:58;100999.66;;;5.48;91.88
49473;BME280;67434;50.956;6.918;2023-02-22T01:33:25;100996.94;;;5.54;92.01
49473;BME280;67434;50.956;6.918;2023-02-22T01:35:51;101002.34;;;5.48;92.29
49473;BME280;67434;50.956;6.918;2023-02-22T01:38:16;100995.06;;;5.55;91.98
49473;BME280;67434;50.956;6.918;2023-02-22T01:40:46;100990.53;;;5.55;91.98
49473;BME280;67434;50.956;6.918;2023-02-22T01:43:20;100989.94;;;5.53;92.59
49473;BME280;67434;50.956;6.918;2023-02-22T01:45:57;100982.09;;;5.58;92.57
49473;BME280;67434;50.956;6.918;2023-02-22T01:51:07;100992.38;;;5.61;92.26
49473;BME280;67434;50.956;6.918;2023-02-22T01:53:54;100983.88;;;5.64;92.03
49473;BME280;67434;50.956;6.918;2023-02-22T01:56:22;100988.44;;;5.64;91.98
49473;BME280;67434;50.956;6.918;2023-02-22T01:58:52;100979.81;;;5.55;92.19
49473;BME280;67434;50.956;6.918;2023-02-22T02:01:22;100982.94;;;5.52;91.96
49473;BME280;67434;50.956;6.918;2023-02-22T02:03:49;100974.06;;;5.52;92.08
49473;BME280;67434;50.956;6.918;2023-02-22T02:06:15;100976.75;;;5.52;92.21
49473;BME280;67434;50.956;6.918;2023-02-22T02:11:32;100959.50;;;5.41;92.56
49473;BME280;67434;50.956;6.918;2023-02-22T02:13:58;100963.38;;;5.45;92.38
49473;BME280;67434;50.956;6.918;2023-02-22T02:16:28;100960.50;;;5.47;92.32
49473;BME280;67434;50.956;6.918;2023-02-22T02:18:58;100966.06;;;5.45;92.14
49473;BME280;67434;50.956;6.918;2023-02-22T02:21:56;100958.63;;;5.47;92.45
49473;BME280;67434;50.956;6.918;2023-02-22T02:30:33;100953.81;;;5.56;92.27
49473;BME280;67434;50.956;6.918;2023-02-22T02:36:02;100941.50;;;5.48;92.32
49473;BME280;67434;50.956;6.918;2023-02-22T02:38:51;100936.09;;;5.55;92.23
49473;BME280;67434;50.956;6.918;2023-02-22T02:41:41;100935.69;;;5.58;91.38
49473;BME280;67434;50.956;6.918;2023-02-22T02:44:15;100931.81;;;5.47;91.82
49473;BME280;67434;50.956;6.918;2023-02-22T02:47:02;100932.69;;;5.41;91.75
49473;BME280;67434;50.956;6.918;2023-02-22T02:49:48;100936.69;;;5.32;91.92
49473;BME280;67434;50.956;6.918;2023-02-22T02:52:17;100946.22;;;5.28;92.38
49473;BME280;67434;50.956;6.918;2023-02-22T02:54:44;100941.44;;;5.30;92.43
49473;BME280;67434;50.956;6.918;2023-02-22T02:57:11;100933.47;;;5.23;92.52
49473;BME280;67434;50.956;6.918;2023-02-22T02:59:37;100926.47;;;5.16;92.74
49473;BME280;67434;50.956;6.918;2023-02-22T03:10:42;100928.13;;;5.17;92.63
49473;BME280;67434;50.956;6.918;2023-02-22T03:15:57;100931.00;;;5.15;92.43
49473;BME280;67434;50.956;6.918;2023-02-22T03:18:43;100933.56;;;5.03;92.79
49473;BME280;67434;50.956;6.918;2023-02-22T03:21:31;100932.34;;;4.99;92.97
49473;BME280;67434;50.956;6.918;2023-02-22T03:24:17;100925.50;;;5.10;92.80
49473;BME280;67434;50.956;6.918;2023-02-22T03:27:00;100926.75;;;5.08;92.72
49473;BME280;67434;50.956;6.918;2023-02-22T03:29:30;100920.78;;;5.06;92.79
49473;BME280;67434;50.956;6.918;2023-02-22T03:32:02;100923.41;;;5.12;92.70
49473;BME280;67434;50.956;6.918;2023-02-22T03:34:35;100918.63;;;5.21;92.50
49473;BME280;67434;50.956;6.918;2023-02-22T03:37:05;100925.66;;;5.15;92.37
49473;BME280;67434;50.956;6.918;2023-02-22T03:39:34;100925.50;;;5.10;92.44
49473;BME280;67434;50.956;6.918;2023-02-22T03:42:05;100918.47;;;5.09;92.63
49473;BME280;67434;50.956;6.918;2023-02-22T03:44:34;100921.38;;;5.08;92.91
49473;BME280;67434;50.956;6.918;2023-02-22T03:47:06;100918.44;;;5.16;92.52
49473;BME280;67434;50.956;6.918;2023-02-22T03:49:42;100918.44;;;5.16;91.94
49473;BME280;67434;50.956;6.918;2023-02-22T03:52:10;100914.13;;;5.15;92.46
49473;BME280;67434;50.956;6.918;2023-02-22T03:54:37;100921.56;;;5.13;92.26
49473;BME280;67434;50.956;6.918;2023-02-22T03:57:09;100917.06;;;5.07;92.72
49473;BME280;67434;50.956;6.918;2023-02-22T03:59:38;100922.19;;;5.08;92.49
49473;BME280;67434;50.956;6.918;2023-02-22T04:02:04;100921.97;;;5.10;92.56
49473;BME280;67434;50.956;6.918;2023-02-22T04:04:30;100915.19;;;5.07;92.56
49473;BME280;67434;50.956;6.918;2023-02-22T04:06:55;100921.38;;;5.08;92.72
49473;BME280;67434;50.956;6.918;2023-02-22T04:09:20;100918.88;;;5.13;92.29
49473;BME280;67434;50.956;6.918;2023-02-22T04:11:46;100916.25;;;5.06;92.79
49473;BME280;67434;50.956;6.918;2023-02-22T04:14:12;100917.75;;;4.95;93.11
49473;BME280;67434;50.956;6.918;2023-02-22T04:16:37;100924.94;;;5.01;92.79
49473;BME280;67434;50.956;6.918;2023-02-22T04:19:03;100914.03;;;4.96;92.97
49473;BME280;67434;50.956;6.918;2023-02-22T04:21:29;100915.91;;;4.96;93.33
49473;BME280;67434;50.956;6.918;2023-02-22T04:23:54;100916.94;;;4.95;93.29
49473;BME280;67434;50.956;6.918;2023-02-22T04:26:20;100917.59;;;4.90;93.39
49473;BME280;67434;50.956;6.918;2023-02-22T04:28:45;100908.78;;;4.83;93.05
49473;BME280;67434;50.956;6.918;2023-02-22T04:31:11;100906.72;;;4.79;92.96
49473;BME280;67434;50.956;6.918;2023-02-22T04:33:36;100895.88;;;4.67;93.26
49473;BME280;67434;50.956;6.918;2023-02-22T04:36:03;100907.66;;;4.59;93.64
49473;BME280;67434;50.956;6.918;2023-02-22T04:38:28;100905.81;;;4.53;94.15
49473;BME280;67434;50.956;6.918;2023-02-22T04:40:54;100907.91;;;4.45;94.45
49473;BME280;67434;50.956;6.918;2023-02-22T04:43:20;100903.19;;;4.47;94.04
49473;BME280;67434;50.956;6.918;2023-02-22T04:45:45;100905.25;;;4.38;94.29
49473;BME280;67434;50.956;6.918;2023-02-22T04:48:11;100895.00;;;4.28;94.58
49473;BME280;67434;50.956;6.918;2023-02-22T04:50:36;100898.50;;;4.29;94.03
49473;BME280;67434;50.956;6.918;2023-02-22T04:53:03;100897.09;;;4.20;94.76
49473;BME280;67434;50.956;6.918;2023-02-22T04:55:29;100908.19;;;4.23;95.11
49473;BME280;67434;50.956;6.918;2023-02-22T04:57:55;100901.03;;;4.17;94.74
49473;BME280;67434;50.956;6.918;2023-02-22T05:00:21;100901.19;;;4.22;94.86
49473;BME280;67434;50.956;6.918;2023-02-22T05:02:48;100896.06;;;4.21;94.84
49473;BME280;67434;50.956;6.918;2023-02-22T05:05:15;100903.06;;;4.22;94.83
49473;BME280;67434;50.956;6.918;2023-02-22T05:07:41;100902.88;;;4.17;94.80
49473;BME280;67434;50.956;6.918;2023-02-22T05:10:07;100889.53;;;4.10;95.74
49473;BME280;67434;50.956;6.918;2023-02-22T05:12:34;100895.66;;;4.17;95.51
49473;BME280;67434;50.956;6.918;2023-02-22T05:14:59;100886.16;;;4.28;94.75
49473;BME280;67434;50.956;6.918;2023-02-22T05:17:24;100887.00;;;4.22;94.34
49473;BME280;67434;50.956;6.918;2023-02-22T05:19:50;100884.97;;;4.17;94.69
49473;BME280;67434;50.956;6.918;2023-02-22T05:22:15;100884.56;;;4.14;95.33
49473;BME280;67434;50.956;6.918;2023-02-22T05:24:41;100880.22;;;4.19;95.22
49473;BME280;67434;50.956;6.918;2023-02-22T05:27:08;100883.75;;;4.13;95.13
49473;BME280;67434;50.956;6.918;2023-02-22T05:29:33;100889.72;;;4.15;94.92
49473;BME280;67434;50.956;6.918;2023-02-22T05:31:58;100878.00;;;4.10;95.49
49473;BME280;67434;50.956;6.918;2023-02-22T05:34:24;100882.03;;;4.25;94.79
49473;BME280;67434;50.956;6.918;2023-02-22T05:36:49;100881.03;;;4.20;94.80
49473;BME280;67434;50.956;6.918;2023-02-22T05:39:15;100874.25;;;4.17;94.87
49473;BME280;67434;50.956;6.918;2023-02-22T05:41:40;100872.63;;;4.16;94.86
49473;BME280;67434;50.956;6.918;2023-02-22T05:44:06;100868.50;;;4.20;94.91
49473;BME280;67434;50.956;6.918;2023-02-22T05:46:31;100868.50;;;4.20;94.75
49473;BME280;67434;50.956;6.918;2023-02-22T05:48:56;100862.31;;;4.20;95.02
49473;BME280;67434;50.956;6.918;2023-02-22T05:51:22;100856.56;;;4.16;95.38
49473;BME280;67434;50.956;6.918;2023-02-22T05:53:47;100859.84;;;4.18;94.80
49473;BME280;67434;50.956;6.918;2023-02-22T05:56:20;100856.97;;;4.20;94.53
49473;BME280;67434;50.956;6.918;2023-02-22T05:58:46;100855.72;;;4.22;94.49
49473;BME280;67434;50.956;6.918;2023-02-22T06:01:11;100854.50;;;4.18;94.45
49473;BME280;67434;50.956;6.918;2023-02-22T06:03:36;100849.56;;;4.15;95.07
49473;BME280;67434;50.956;6.918;2023-02-22T06:06:02;100846.69;;;4.17;94.78
49473;BME280;67434;50.956;6.918;2023-02-22T06:08:28;100853.28;;;4.14;94.35
49473;BME280;67434;50.956;6.918;2023-02-22T06:10:54;100853.47;;;4.19;93.84
49473;BME280;67434;50.956;6.918;2023-02-22T06:13:19;100852.84;;;4.17;93.91
49473;BME280;67434;50.956;6.918;2023-02-22T06:15:44;100844.44;;;4.07;94.11
49473;BME280;67434;50.956;6.918;2023-02-22T06:18:10;100841.94;;;4.19;93.57
49473;BME280;67434;50.956;6.918;2023-02-22T06:20:35;100853.28;;;4.14;93.79
49473;BME280;67434;50.956;6.918;2023-02-22T06:23:00;100850.00;;;4.12;93.50
49473;BME280;67434;50.956;6.918;2023-02-22T06:25:28;100847.53;;;4.04;93.72
49473;BME280;67434;50.956;6.918;2023-02-22T06:27:55;100843.47;;;3.95;94.65
49473;BME280;67434;50.956;6.918;2023-02-22T06:30:22;100848.38;;;3.98;94.53
49473;BME280;67434;50.956;6.918;2023-02-22T06:32:48;100846.31;;;4.00;94.65
49473;BME280;67434;50.956;6.918;2023-02-22T06:35:14;100841.78;;;4.00;94.08
49473;BME280;67434;50.956;6.918;2023-02-22T06:37:40;100849.22;;;3.92;93.69
49473;BME280;67434;50.956;6.918;2023-02-22T06:40:05;100846.97;;;3.89;94.14
49473;BME280;67434;50.956;6.918;2023-02-22T06:42:31;100847.38;;;3.92;94.36
49473;BME280;67434;50.956;6.918;2023-02-22T06:44:56;100846.75;;;3.97;93.96
49473;BME280;67434;50.956;6.918;2023-02-22T06:47:22;100851.47;;;4.01;94.04
49473;BME280;67434;50.956;6.918;2023-02-22T06:49:57;100848.56;;;4.03;93.75
49473;BME280;67434;50.956;6.918;2023-02-22T06:52:25;100855.56;;;4.11;93.52
49473;BME280;67434;50.956;6.918;2023-02-22T06:54:51;100854.06;;;4.21;93.54
49473;BME280;67434;50.956;6.918;2023-02-22T06:57:20;100851.81;;;4.18;93.61
49473;BME280;67434;50.956;6.918;2023-02-22T06:59:46;100846.66;;;4.23;92.87
49473;BME280;67434;50.956;6.918;2023-02-22T07:02:12;100845.16;;;4.34;92.97
49473;BME280;67434;50.956;6.918;2023-02-22T07:04:38;100848.63;;;4.41;92.66
49473;BME280;67434;50.956;6.918;2023-02-22T07:07:04;100844.28;;;4.47;92.20
49473;BME280;67434;50.956;6.918;2023-02-22T07:09:30;100843.22;;;4.54;91.89
49473;BME280;67434;50.956;6.918;2023-02-22T07:11:56;100840.25;;;4.69;91.82
49473;BME280;67434;50.956;6.918;2023-02-22T07:14:21;100838.34;;;4.76;91.49
49473;BME280;67434;50.956;6.918;2023-02-22T07:16:47;100835.59;;;4.83;91.19
49473;BME280;67434;50.956;6.918;2023-02-22T07:19:13;100848.72;;;4.97;90.67
49473;BME280;67434;50.956;6.918;2023-02-22T07:21:38;100846.97;;;5.10;89.95
49473;BME280;67434;50.956;6.918;2023-02-22T07:24:04;100845.47;;;5.20;89.34
49473;BME280;67434;50.956;6.918;2023-02-22T07:26:29;100844.97;;;5.30;89.04
49473;BME280;67434;50.956;6.918;2023-02-22T07:28:55;100844.13;;;5.29;88.75
49473;BME280;67434;50.956;6.918;2023-02-22T07:31:20;100840.50;;;5.42;88.49
49473;BME280;67434;50.956;6.918;2023-02-22T07:33:46;100838.97;;;5.53;87.80
49473;BME280;67434;50.956;6.918;2023-02-22T07:36:13;100840.50;;;5.67;87.55
49473;BME280;67434;50.956;6.918;2023-02-22T07:38:42;100839.53;;;5.80;86.86
49473;BME280;67434;50.956;6.918;2023-02-22T07:41:08;100839.66;;;5.85;86.22
49473;BME280;67434;50.956;6.918;2023-02-22T07:43:33;100833.16;;;5.99;85.84
49473;BME280;67434;50.956;6.918;2023-02-22T07:46:00;100826.75;;;6.00;85.75
49473;BME280;67434;50.956;6.918;2023-02-22T07:48:28;100834.28;;;6.10;85.63
49473;BME280;67434;50.956;6.918;2023-02-22T07:50:53;100829.63;;;6.17;85.13
49473;BME280;67434;50.956;6.918;2023-02-22T07:53:22;100829.19;;;6.20;84.46
49473;BME280;67434;50.956;6.918;2023-02-22T07:55:48;100819.41;;;6.25;84.75
49473;BME280;67434;50.956;6.918;2023-02-22T07:58:22;100816.09;;;6.42;84.07
49473;BME280;67434;50.956;6.918;2023-02-22T08:00:48;100819.97;;;6.46;83.81
49473;BME280;67434;50.956;6.918;2023-02-22T08:03:15;100814.97;;;6.49;83.41
49473;BME280;67434;50.956;6.918;2023-02-22T08:05:45;100812.63;;;6.53;83.45
49473;BME280;67434;50.956;6.918;2023-02-22T08:08:12;100811.50;;;6.61;83.63
49473;BME280;67434;50.956;6.918;2023-02-22T08:10:42;100807.00;;;6.73;82.98
49473;BME280;67434;50.956;6.918;2023-02-22T08:13:08;100810.16;;;6.81;82.54
49473;BME280;67434;50.956;6.918;2023-02-22T08:15:38;100815.19;;;6.89;82.17
49473;BME280;67434;50.956;6.918;2023-02-22T08:18:07;100807.97;;;6.90;82.60
49473;BME280;67434;50.956;6.918;2023-02-22T08:20:37;100807.38;;;7.00;82.05
49473;BME280;67434;50.956;6.918;2023-02-22T08:23:03;100801.53;;;7.03;81.53
49473;BME280;67434;50.956;6.918;2023-02-22T08:25:29;100802.94;;;7.05;81.38
49473;BME280;67434;50.956;6.918;2023-02-22T08:28:02;100798.66;;;7.16;81.67
49473;BME280;67434;50.956;6.918;2023-02-22T08:30:30;100801.34;;;7.28;81.48
49473;BME280;67434;50.956;6.918;2023-02-22T08:32:56;100805.78;;;7.34;81.15
49473;BME280;67434;50.956;6.918;2023-02-22T08:35:22;100796.31;;;7.43;80.70
49473;BME280;67434;50.956;6.918;2023-02-22T08:37:50;100797.38;;;7.53;80.45
49473;BME280;67434;50.956;6.918;2023-02-22T08:40:19;100797.34;;;7.65;79.89
49473;BME280;67434;50.956;6.918;2023-02-22T08:42:45;100793.00;;;7.76;80.17
49473;BME280;67434;50.956;6.918;2023-02-22T08:45:11;100797.47;;;7.82;79.48
49473;BME280;67434;50.956;6.918;2023-02-22T08:47:38;100788.19;;;7.90;79.31
49473;BME280;67434;50.956;6.918;2023-02-22T08:50:05;100785.00;;;8.04;78.98
49473;BME280;67434;50.956;6.918;2023-02-22T08:52:30;100784.25;;;8.21;78.98
49473;BME280;67434;50.956;6.918;2023-02-22T08:54:56;100778.72;;;8.27;78.30
49473;BME280;67434;50.956;6.918;2023-02-22T08:57:21;100776.13;;;8.32;77.69
49473;BME280;67434;50.956;6.918;2023-02-22T08:59:49;100776.81;;;8.39;77.54
49473;BME280;67434;50.956;6.918;2023-02-22T09:02:18;100772.44;;;8.50;77.59
49473;BME280;67434;50.956;6.918;2023-02-22T09:04:44;100772.34;;;8.45;77.04
49473;BME280;67434;50.956;6.918;2023-02-22T09:07:10;100765.41;;;8.49;77.17
49473;BME280;67434;50.956;6.918;2023-02-22T09:09:36;100772.13;;;8.63;76.54
49473;BME280;67434;50.956;6.918;2023-02-22T09:12:02;100764.38;;;8.67;76.14
49473;BME280;67434;50.956;6.918;2023-02-22T09:14:27;100767.09;;;8.84;75.62
49473;BME280;67434;50.956;6.918;2023-02-22T09:16:53;100766.47;;;8.93;75.14
49473;BME280;67434;50.956;6.918;2023-02-22T09:19:18;100761.88;;;8.94;73.96
49473;BME280;67434;50.956;6.918;2023-02-22T09:21:44;100760.00;;;8.94;73.83
49473;BME280;67434;50.956;6.918;2023-02-22T09:24:09;100760.41;;;9.03;74.22
49473;BME280;67434;50.956;6.918;2023-02-22T09:26:38;100763.66;;;9.05;73.69
49473;BME280;67434;50.956;6.918;2023-02-22T09:29:07;100764.22;;;9.07;73.51
49473;BME280;67434;50.956;6.918;2023-02-22T09:31:39;100767.28;;;8.94;74.12
49473;BME280;67434;50.956;6.918;2023-02-22T09:34:07;100771.81;;;9.10;74.26
49473;BME280;67434;50.956;6.918;2023-02-22T09:36:42;100767.56;;;9.14;73.51
49473;BME280;67434;50.956;6.918;2023-02-22T09:39:08;100767.97;;;9.23;73.31
49473;BME280;67434;50.956;6.918;2023-02-22T09:44:23;100755.78;;;9.20;72.66
49473;BME280;67434;50.956;6.918;2023-02-22T09:46:53;100760.88;;;9.33;72.68
49473;BME280;67434;50.956;6.918;2023-02-22T09:49:26;100755.59;;;9.44;72.35
49473;BME280;67434;50.956;6.918;2023-02-22T09:52:23;100760.13;;;9.60;72.12
49473;BME280;67434;50.956;6.918;2023-02-22T09:55:08;100756.69;;;9.64;71.12
49473;BME280;67434;50.956;6.918;2023-02-22T09:57:39;100761.47;;;9.79;70.80
49473;BME280;67434;50.956;6.918;2023-02-22T10:00:14;100749.06;;;9.78;71.04
49473;BME280;67434;50.956;6.918;2023-02-22T10:03:22;100741.00;;;10.05;70.42
49473;BME280;67434;50.956;6.918;2023-02-22T10:06:24;100734.38;;;10.18;69.89
49473;BME280;67434;50.956;6.918;2023-02-22T10:08:52;100735.63;;;10.32;69.41
49473;BME280;67434;50.956;6.918;2023-02-22T10:12:01;100743.69;;;10.27;69.44
49473;BME280;67434;50.956;6.918;2023-02-22T10:25:44;100721.34;;;10.63;68.10
49473;BME280;67434;50.956;6.918;2023-02-22T10:28:21;100723.41;;;10.83;68.16
49473;BME280;67434;50.956;6.918;2023-02-22T10:30:51;100726.75;;;10.95;67.86
49473;BME280;67434;50.956;6.918;2023-02-22T10:35:56;100717.44;;;11.18;67.22
49473;BME280;67434;50.956;6.918;2023-02-22T10:38:29;100711.00;;;11.30;67.02
49473;BME280;67434;50.956;6.918;2023-02-22T10:41:01;100715.91;;;11.38;66.24
49473;BME280;67434;50.956;6.918;2023-02-22T10:43:28;100718.06;;;11.36;66.66
49473;BME280;67434;50.956;6.918;2023-02-22T10:46:00;100713.50;;;11.41;66.28
49473;BME280;67434;50.956;6.918;2023-02-22T10:48:28;100715.94;;;11.43;66.30
49473;BME280;67434;50.956;6.918;2023-02-22T10:51:01;100705.41;;;11.51;66.25
49473;BME280;67434;50.956;6.918;2023-02-22T10:53:28;100704.16;;;11.64;65.75
49473;BME280;67434;50.956;6.918;2023-02-22T10:58:58;100704.78;;;11.81;64.82
49473;BME280;67434;50.956;6.918;2023-02-22T11:06:33;100689.41;;;11.97;64.70
49473;BME280;67434;50.956;6.918;2023-02-22T11:09:05;100682.91;;;11.98;64.03
49473;BME280;67434;50.956;6.918;2023-02-22T11:11:35;100689.69;;;12.06;63.77
49473;BME280;67434;50.956;6.918;2023-02-22T11:14:01;100687.81;;;12.11;63.76
49473;BME280;67434;50.956;6.918;2023-02-22T11:16:51;100688.59;;;12.12;63.07
49473;BME280;67434;50.956;6.918;2023-02-22T11:19:20;100689.69;;;12.11;63.46
49473;BME280;67434;50.956;6.918;2023-02-22T11:22:18;100680.50;;;12.22;63.14
49473;BME280;67434;50.956;6.918;2023-02-22T11:24:48;100673.47;;;12.41;62.64
49473;BME280;67434;50.956;6.918;2023-02-22T11:27:38;100670.50;;;12.53;62.40
49473;BME280;67434;50.956;6.918;2023-02-22T11:30:27;100671.88;;;12.66;61.59
49473;BME280;67434;50.956;6.918;2023-02-22T11:35:56;100665.56;;;12.96;61.18
49473;BME280;67434;50.956;6.918;2023-02-22T11:38:29;100669.63;;;13.08;60.71
49473;BME280;67434;50.956;6.918;2023-02-22T11:43:35;100657.91;;;13.43;59.58
49473;BME280;67434;50.956;6.918;2023-02-22T11:46:22;100663.34;;;13.33;58.63
49473;BME280;67434;50.956;6.918;2023-02-22T11:48:57;100656.00;;;13.34;58.43
49473;BME280;67434;50.956;6.918;2023-02-22T11:51:35;100658.16;;;13.42;58.80
49473;BME280;67434;50.956;6.918;2023-02-22T11:54:32;100649.44;;;13.50;58.17
49473;BME280;67434;50.956;6.918;2023-02-22T11:57:21;100647.25;;;13.52;58.07
49473;BME280;67434;50.956;6.918;2023-02-22T12:00:14;100646.97;;;13.54;57.69
49473;BME280;67434;50.956;6.918;2023-02-22T12:11:06;100627.25;;;13.87;56.84
49473;BME280;67434;50.956;6.918;2023-02-22T12:19:31;100634.66;;;13.76;56.01
49473;BME280;67434;50.956;6.918;2023-02-22T12:22:00;100640.38;;;13.70;56.18
49473;BME280;67434;50.956;6.918;2023-02-22T12:24:40;100636.53;;;13.81;56.17
49473;BME280;67434;50.956;6.918;2023-02-22T12:27:43;100630.00;;;13.82;55.96
49473;BME280;67434;50.956;6.918;2023-02-22T12:30:38;100629.72;;;13.84;54.94
49473;BME280;67434;50.956;6.918;2023-02-22T12:33:11;100629.72;;;13.84;55.47
49473;BME280;67434;50.956;6.918;2023-02-22T12:35:42;100627.53;;;13.86;54.69
49473;BME280;67434;50.956;6.918;2023-02-22T12:38:23;100633.25;;;13.84;55.26
49473;BME280;67434;50.956;6.918;2023-02-22T12:41:09;100635.41;;;13.87;55.29
49473;BME280;67434;50.956;6.918;2023-02-22T12:46:22;100635.06;;;13.99;54.56
49473;BME280;67434;50.956;6.918;2023-02-22T12:54:47;100631.38;;;13.80;54.17
49473;BME280;67434;50.956;6.918;2023-02-22T12:57:19;100628.06;;;13.88;54.09
49473;BME280;67434;50.956;6.918;2023-02-22T12:59:52;100628.03;;;13.93;54.03
49473;BME280;67434;50.956;6.918;2023-02-22T13:02:30;100628.47;;;14.05;54.25
49473;BME280;67434;50.956;6.918;2023-02-22T13:04:57;100626.28;;;14.07;53.31
49473;BME280;67434;50.956;6.918;2023-02-22T13:12:58;100632.81;;;14.06;53.80
49473;BME280;67434;50.956;6.918;2023-02-22T13:15:41;100617.84;;;14.08;53.72
49473;BME280;67434;50.956;6.918;2023-02-22T13:20:53;100625.06;;;14.28;53.18
49473;BME280;67434;50.956;6.918;2023-02-22T13:23:52;100621.94;;;14.45;53.51
49473;BME280;67434;50.956;6.918;2023-02-22T13:27:05;100615.28;;;14.61;53.09
49473;BME280;67434;50.956;6.918;2023-02-22T13:29:37;100614.63;;;14.75;52.99
49473;BME280;67434;50.956;6.918;2023-02-22T13:37:44;100616.22;;;15.05;52.33
49473;BME280;67434;50.956;6.918;2023-02-22T13:54:19;100612.19;;;16.06;49.74
49473;BME280;67434;50.956;6.918;2023-02-22T13:56:47;100603.94;;;16.11;49.49
49473;BME280;67434;50.956;6.918;2023-02-22T13:59:34;100609.50;;;16.20;49.43
49473;BME280;67434;50.956;6.918;2023-02-22T14:02:02;100604.66;;;16.17;49.42
49473;BME280;67434;50.956;6.918;2023-02-22T14:06:59;100604.94;;;16.15;49.38
49473;BME280;67434;50.956;6.918;2023-02-22T14:09:46;100604.53;;;16.08;49.66
49473;BME280;67434;50.956;6.918;2023-02-22T14:15:13;100605.50;;;15.99;50.70
49473;BME280;67434;50.956;6.918;2023-02-22T14:18:12;100603.84;;;15.98;50.43
49473;BME280;67434;50.956;6.918;2023-02-22T14:20:40;100600.97;;;15.89;50.21
49473;BME280;67434;50.956;6.918;2023-02-22T14:23:27;100605.41;;;15.85;51.15
49473;BME280;67434;50.956;6.918;2023-02-22T14:25:55;100595.31;;;15.85;50.88
49473;BME280;67434;50.956;6.918;2023-02-22T14:28:50;100596.03;;;15.91;50.88
49473;BME280;67434;50.956;6.918;2023-02-22T14:31:20;100599.19;;;15.98;50.89
49473;BME280;67434;50.956;6.918;2023-02-22T14:36:28;100596.13;;;15.86;50.38
49473;BME280;67434;50.956;6.918;2023-02-22T14:39:09;100602.78;;;15.99;50.52
49473;BME280;67434;50.956;6.918;2023-02-22T14:41:40;100590.97;;;16.03;50.31
49473;BME280;67434;50.956;6.918;2023-02-22T14:44:08;100595.16;;;16.14;50.27
49473;BME280;67434;50.956;6.918;2023-02-22T14:46:39;100596.47;;;16.17;49.70
49473;BME280;67434;50.956;6.918;2023-02-22T14:49:08;100590.34;;;16.25;50.29
49473;BME280;67434;50.956;6.918;2023-02-22T14:51:48;100594.78;;;16.35;49.25
49473;BME280;67434;50.956;6.918;2023-02-22T14:54:26;100589.53;;;16.24;49.00
49473;BME280;67434;50.956;6.918;2023-02-22T14:57:08;100594.16;;;16.24;49.63
49473;BME280;67434;50.956;6.918;2023-02-22T15:00:16;100590.53;;;16.29;50.08
49473;BME280;67434;50.956;6.918;2023-02-22T15:02:46;100590.84;;;16.27;49.75
49473;BME280;67434;50.956;6.918;2023-02-22T15:05:15;100588.41;;;16.25;50.02
49473;BME280;67434;50.956;6.918;2023-02-22T15:07:54;100594.75;;;16.21;50.02
49473;BME280;67434;50.956;6.918;2023-02-22T15:10:29;100588.19;;;16.22;49.92